Time;durP1;ratioP1;P1;durP2;ratioP2;P2;SDS_P1;SDS_P2;PMS_P1;PMS_P2;Temp;Humidity;BMP_temperature;BMP_pressure;BME280_temperature;BME280_humidity;BME280_pressure;Samples;Min_cycle;Max_cycle;Signal;HPM_P1;HPM_P2
2023/09/17 00:02:30;;;;;;;6.32;5.72;;;23.30;99.90;;;;;;6222831;28;89134;-72
2023/09/17 00:05:33;;;;;;;5.90;5.30;;;23.30;99.90;;;;;;6228686;28;89804;-73
2023/09/17 00:08:37;;;;;;;7.10;5.68;;;23.30;99.90;;;;;;6229556;28;88702;-73
2023/09/17 00:11:39;;;;;;;5.72;5.30;;;23.30;99.90;;;;;;6230241;28;89014;-73
2023/09/17 00:14:41;;;;;;;6.13;5.63;;;23.30;99.90;;;;;;6230941;28;89096;-72
2023/09/17 00:17:44;;;;;;;6.10;5.50;;;23.30;99.90;;;;;;6230584;28;88673;-73
2023/09/17 00:20:46;;;;;;;7.28;5.85;;;23.30;99.90;;;;;;6230398;28;88126;-73
2023/09/17 00:23:49;;;;;;;7.00;6.30;;;23.30;99.90;;;;;;6228824;28;87998;-72
2023/09/17 00:26:51;;;;;;;5.95;5.38;;;23.30;99.90;;;;;;6226628;28;90129;-73
2023/09/17 00:29:53;;;;;;;5.97;5.38;;;23.30;99.90;;;;;;6230996;28;89298;-72
2023/09/17 00:32:55;;;;;;;5.30;4.72;;;23.30;99.90;;;;;;6230614;28;88952;-72
2023/09/17 00:35:57;;;;;;;5.60;5.05;;;23.30;99.90;;;;;;6225910;28;87956;-72
2023/09/17 00:39:00;;;;;;;6.18;5.57;;;23.30;99.90;;;;;;6221728;28;89218;-72
2023/09/17 00:42:02;;;;;;;7.05;6.35;;;23.30;99.90;;;;;;6229481;28;89007;-72
2023/09/17 00:45:06;;;;;;;6.00;5.45;;;23.30;99.90;;;;;;6230013;28;88939;-72
2023/09/17 00:48:08;;;;;;;5.80;5.30;;;23.30;99.90;;;;;;6219982;28;88885;-72
2023/09/17 00:51:10;;;;;;;5.80;5.20;;;23.30;99.90;;;;;;6229868;28;88013;-72
2023/09/17 00:54:14;;;;;;;5.60;5.10;;;23.30;99.90;;;;;;6230226;28;89046;-73
2023/09/17 00:57:17;;;;;;;6.20;5.60;;;23.30;99.90;;;;;;6228847;28;90098;-72
2023/09/17 01:00:21;;;;;;;6.10;5.50;;;23.30;99.90;;;;;;6228621;28;89381;-72
2023/09/17 01:03:23;;;;;;;6.18;5.57;;;23.30;99.90;;;;;;6226438;28;89099;-73
2023/09/17 01:06:25;;;;;;;5.80;5.30;;;23.30;99.90;;;;;;6224668;28;88985;-72
2023/09/17 01:09:30;;;;;;;5.55;5.05;;;23.20;99.90;;;;;;6226750;28;89843;-72
2023/09/17 01:12:32;;;;;;;6.03;5.45;;;23.30;99.90;;;;;;6226155;28;88716;-72
2023/09/17 01:15:34;;;;;;;6.13;5.53;;;23.30;99.90;;;;;;6227672;28;89000;-72
2023/09/17 01:18:36;;;;;;;5.65;5.15;;;23.30;99.90;;;;;;6225244;28;88372;-72
2023/09/17 01:21:42;;;;;;;6.72;5.75;;;23.30;99.90;;;;;;6227492;28;88997;-73
2023/09/17 01:24:51;;;;;;;5.90;5.22;;;23.30;99.90;;;;;;6228557;28;89066;-72
2023/09/17 01:27:55;;;;;;;5.97;5.38;;;23.30;99.90;;;;;;6221149;28;90287;-72
2023/09/17 01:30:57;;;;;;;5.00;4.50;;;23.30;99.90;;;;;;6221186;28;89703;-72
2023/09/17 01:33:59;;;;;;;6.80;5.47;;;23.30;99.90;;;;;;6216123;28;89281;-73
2023/09/17 01:37:07;;;;;;;5.38;4.88;;;23.30;99.90;;;;;;6230424;28;89256;-72
2023/09/17 01:40:12;;;;;;;5.57;4.80;;;23.30;99.90;;;;;;6226899;28;89111;-72
2023/09/17 01:43:17;;;;;;;5.63;4.85;;;23.20;99.90;;;;;;6224397;28;89564;-72
2023/09/17 01:46:20;;;;;;;5.57;4.80;;;23.30;99.90;;;;;;6225001;28;87999;-72
2023/09/17 01:49:22;;;;;;;5.50;5.00;;;23.30;99.90;;;;;;6224428;28;87944;-73
2023/09/17 01:52:26;;;;;;;4.93;4.53;;;23.20;99.90;;;;;;6229240;28;89027;-73
2023/09/17 01:55:29;;;;;;;5.38;4.80;;;23.20;99.90;;;;;;6230717;28;89428;-72
2023/09/17 01:58:33;;;;;;;5.85;5.25;;;23.20;99.90;;;;;;6226042;28;89915;-73
2023/09/17 02:01:35;;;;;;;5.43;4.93;;;23.20;99.90;;;;;;6231114;28;89134;-72
2023/09/17 02:04:37;;;;;;;5.47;4.90;;;23.20;99.90;;;;;;6233689;28;89704;-73
2023/09/17 02:07:39;;;;;;;5.88;5.38;;;23.30;99.90;;;;;;6229811;28;89182;-73
2023/09/17 02:10:42;;;;;;;6.50;5.82;;;23.30;99.90;;;;;;6229856;28;89116;-73
2023/09/17 02:13:46;;;;;;;5.90;5.30;;;23.20;99.90;;;;;;6229806;28;89118;-73
2023/09/17 02:16:49;;;;;;;7.05;5.50;;;23.30;99.90;;;;;;6231441;28;89287;-73
2023/09/17 02:19:51;;;;;;;5.18;4.68;;;23.20;99.90;;;;;;6233448;28;88442;-73
2023/09/17 02:22:53;;;;;;;5.30;4.80;;;23.20;99.90;;;;;;6232301;28;89014;-73
2023/09/17 02:25:55;;;;;;;5.72;5.22;;;23.20;99.90;;;;;;6228142;28;89112;-73
2023/09/17 02:28:58;;;;;;;6.20;5.60;;;23.20;99.90;;;;;;6230982;28;88960;-73
2023/09/17 02:32:00;;;;;;;8.10;5.25;;;23.20;99.90;;;;;;6227840;28;89404;-73
2023/09/17 02:35:02;;;;;;;6.30;5.70;;;23.20;99.90;;;;;;6231997;28;89067;-73
2023/09/17 02:38:05;;;;;;;5.65;5.10;;;23.20;99.90;;;;;;6231648;28;89293;-73
2023/09/17 02:41:07;;;;;;;6.53;5.43;;;23.20;99.90;;;;;;6232933;28;89236;-73
2023/09/17 02:44:10;;;;;;;8.50;6.40;;;23.20;99.90;;;;;;6230947;28;89155;-73
2023/09/17 02:47:12;;;;;;;6.10;5.50;;;23.20;99.90;;;;;;6223469;28;89149;-73
2023/09/17 02:50:14;;;;;;;6.18;5.55;;;23.20;99.90;;;;;;6233405;28;88249;-73
2023/09/17 02:53:16;;;;;;;6.25;5.65;;;23.20;99.90;;;;;;6224512;28;89124;-73
2023/09/17 02:56:18;;;;;;;7.50;6.05;;;23.20;99.90;;;;;;6230980;28;88904;-73
2023/09/17 02:59:22;;;;;;;7.30;6.43;;;23.20;99.90;;;;;;6229692;28;90383;-73
2023/09/17 03:02:24;;;;;;;6.63;6.00;;;23.20;99.90;;;;;;6226785;28;89072;-72
2023/09/17 03:05:25;;;;;;;5.57;5.07;;;23.20;99.90;;;;;;6231847;28;89051;-73
2023/09/17 03:08:27;;;;;;;7.05;5.78;;;23.20;99.90;;;;;;6225780;28;89256;-73
2023/09/17 03:11:29;;;;;;;7.00;5.82;;;23.20;99.90;;;;;;6230608;28;89049;-73
2023/09/17 03:14:33;;;;;;;9.10;6.53;;;23.10;99.90;;;;;;6230761;28;89523;-73
2023/09/17 03:17:37;;;;;;;8.73;6.43;;;23.20;99.90;;;;;;6231799;28;89076;-73
2023/09/17 03:20:40;;;;;;;6.13;5.53;;;23.20;99.90;;;;;;6220976;28;88416;-73
2023/09/17 03:23:42;;;;;;;8.40;6.53;;;23.20;99.90;;;;;;6220894;28;88837;-72
2023/09/17 03:26:43;;;;;;;7.47;6.55;;;23.10;99.90;;;;;;6231336;28;89123;-72
2023/09/17 03:29:47;;;;;;;6.68;6.07;;;23.20;99.90;;;;;;6225054;28;90805;-72
2023/09/17 03:32:49;;;;;;;6.50;5.82;;;23.20;99.90;;;;;;6231717;28;89069;-72
2023/09/17 03:35:51;;;;;;;6.15;5.60;;;23.10;99.90;;;;;;6230902;28;89359;-72
2023/09/17 03:38:53;;;;;;;6.82;6.18;;;23.10;99.90;;;;;;6229547;28;89313;-72
2023/09/17 03:41:55;;;;;;;7.07;6.38;;;23.10;99.90;;;;;;6229058;28;89182;-72
2023/09/17 03:44:58;;;;;;;7.85;6.95;;;23.10;99.90;;;;;;6229503;28;88981;-72
2023/09/17 03:48:01;;;;;;;6.72;6.13;;;23.10;99.90;;;;;;6224291;28;89100;-72
2023/09/17 03:51:04;;;;;;;5.93;5.25;;;23.10;99.90;;;;;;6231479;28;88286;-72
2023/09/17 03:54:06;;;;;;;6.25;5.65;;;23.10;99.90;;;;;;6221455;28;89122;-72
2023/09/17 03:57:08;;;;;;;7.22;6.57;;;23.10;99.90;;;;;;6231173;28;88250;-72
2023/09/17 04:00:15;;;;;;;7.63;6.43;;;23.10;99.90;;;;;;6227660;28;88876;-72
2023/09/17 04:03:19;;;;;;;6.90;6.20;;;23.10;99.90;;;;;;6227484;28;88748;-72
2023/09/17 04:06:21;;;;;;;6.40;5.80;;;23.10;99.90;;;;;;6230065;28;88989;-72
2023/09/17 04:09:23;;;;;;;6.32;5.72;;;23.10;99.90;;;;;;6221600;28;89137;-73
2023/09/17 04:12:25;;;;;;;6.65;6.15;;;23.10;99.90;;;;;;6228055;28;89081;-73
2023/09/17 04:15:28;;;;;;;7.85;6.60;;;23.10;99.90;;;;;;6228990;28;89455;-72
2023/09/17 04:18:30;;;;;;;7.65;6.63;;;23.10;99.90;;;;;;6230147;28;87942;-72
2023/09/17 04:21:32;;;;;;;6.85;6.25;;;23.10;99.90;;;;;;6227719;28;88289;-73
2023/09/17 04:24:34;;;;;;;7.07;6.38;;;23.10;99.90;;;;;;6227620;28;89592;-72
2023/09/17 04:27:37;;;;;;;7.15;6.38;;;23.10;99.90;;;;;;6229326;28;89467;-73
2023/09/17 04:30:40;;;;;;;7.18;6.55;;;23.10;99.90;;;;;;6220173;28;90118;-73
2023/09/17 04:33:42;;;;;;;7.45;6.75;;;23.10;99.90;;;;;;6231223;28;89035;-73
2023/09/17 04:36:44;;;;;;;8.30;7.50;;;23.10;99.90;;;;;;6229585;28;87949;-72
2023/09/17 04:39:48;;;;;;;8.05;7.10;;;23.10;99.90;;;;;;6225929;28;89442;-72
2023/09/17 04:42:52;;;;;;;7.97;7.28;;;23.10;99.90;;;;;;6231255;28;88782;-73
2023/09/17 04:45:57;;;;;;;8.00;6.88;;;23.10;99.90;;;;;;6227624;28;89171;-72
2023/09/17 04:48:59;;;;;;;7.70;7.00;;;23.10;99.90;;;;;;6229693;28;88348;-73
2023/09/17 04:52:01;;;;;;;7.60;6.90;;;23.10;99.90;;;;;;6219135;28;88833;-72
2023/09/17 04:55:04;;;;;;;7.75;7.05;;;23.10;99.90;;;;;;6228891;28;89100;-73
2023/09/17 04:58:06;;;;;;;7.60;6.90;;;23.10;99.90;;;;;;6230124;28;88862;-73
2023/09/17 05:01:12;;;;;;;7.50;6.82;;;23.10;99.90;;;;;;6229385;28;89037;-72
2023/09/17 05:04:15;;;;;;;7.53;6.78;;;23.10;99.90;;;;;;6231090;28;89143;-72
2023/09/17 05:07:17;;;;;;;7.78;7.03;;;23.00;99.90;;;;;;6229293;28;89242;-72
2023/09/17 05:10:19;;;;;;;7.75;6.95;;;23.10;99.90;;;;;;6229829;28;89370;-72
2023/09/17 05:13:21;;;;;;;6.93;6.32;;;23.10;99.90;;;;;;6228883;28;88985;-72
2023/09/17 05:16:25;;;;;;;7.03;6.43;;;23.10;99.90;;;;;;6227712;28;89046;-72
2023/09/17 05:19:27;;;;;;;8.23;7.30;;;23.00;99.90;;;;;;6224649;28;89166;-72
2023/09/17 05:22:30;;;;;;;7.43;6.72;;;23.10;99.90;;;;;;6226179;28;88252;-73
2023/09/17 05:25:33;;;;;;;7.70;7.00;;;23.10;99.90;;;;;;6230994;28;88868;-72
2023/09/17 05:28:35;;;;;;;7.53;6.82;;;23.00;99.90;;;;;;6233136;28;90127;-72
2023/09/17 05:31:38;;;;;;;8.52;7.25;;;23.00;99.90;;;;;;6221996;28;89957;-72
2023/09/17 05:34:40;;;;;;;8.05;7.25;;;23.00;99.90;;;;;;6237989;28;89444;-73
2023/09/17 05:37:42;;;;;;;7.82;7.03;;;23.10;99.90;;;;;;6233648;28;90672;-72
2023/09/17 05:40:44;;;;;;;7.20;6.53;;;23.10;99.90;;;;;;6231960;28;89190;-73
2023/09/17 05:43:46;;;;;;;7.28;6.57;;;23.10;99.90;;;;;;6221063;28;89105;-73
2023/09/17 05:46:49;;;;;;;8.07;7.18;;;23.10;99.90;;;;;;6234555;28;89152;-73
2023/09/17 05:49:51;;;;;;;7.50;6.80;;;23.10;99.90;;;;;;6231970;28;89084;-72
2023/09/17 05:52:53;;;;;;;8.27;6.72;;;23.10;99.90;;;;;;6233985;28;88536;-72
2023/09/17 05:55:55;;;;;;;7.50;6.70;;;23.10;99.90;;;;;;6233002;28;89062;-73
2023/09/17 05:58:57;;;;;;;7.80;7.00;;;23.10;99.90;;;;;;6232901;28;89218;-73
2023/09/17 06:02:00;;;;;;;7.10;6.40;;;23.00;99.90;;;;;;6233536;28;90012;-72
2023/09/17 06:05:03;;;;;;;6.47;5.88;;;23.10;99.90;;;;;;6233650;28;89279;-73
2023/09/17 06:08:05;;;;;;;6.88;6.28;;;23.10;99.90;;;;;;6227691;28;89154;-72
2023/09/17 06:11:07;;;;;;;6.35;5.85;;;23.10;99.90;;;;;;6232099;28;89064;-72
2023/09/17 06:14:09;;;;;;;6.70;6.00;;;23.10;99.90;;;;;;6230904;28;89216;-72
2023/09/17 06:17:13;;;;;;;6.68;6.07;;;23.10;99.90;;;;;;6229836;28;89308;-72
2023/09/17 06:20:15;;;;;;;6.80;6.20;;;23.10;99.90;;;;;;6231736;28;89300;-73
2023/09/17 06:23:17;;;;;;;6.70;6.10;;;23.10;99.90;;;;;;6235491;28;88308;-73
2023/09/17 06:26:19;;;;;;;6.18;5.68;;;23.10;99.90;;;;;;6230776;28;89291;-73
2023/09/17 06:29:21;;;;;;;6.72;6.13;;;23.10;99.90;;;;;;6231546;28;89151;-72
2023/09/17 06:32:24;;;;;;;6.85;6.13;;;23.20;99.90;;;;;;6228787;28;89665;-72
2023/09/17 06:35:26;;;;;;;6.65;6.10;;;23.10;99.90;;;;;;6231735;28;89062;-72
2023/09/17 06:38:28;;;;;;;6.70;6.10;;;23.20;99.90;;;;;;6231955;28;89271;-72
2023/09/17 06:41:30;;;;;;;6.82;6.22;;;23.10;99.90;;;;;;6230655;28;89944;-73
2023/09/17 06:44:32;;;;;;;6.22;5.65;;;23.10;99.90;;;;;;6231558;28;89277;-73
2023/09/17 06:47:36;;;;;;;6.95;6.22;;;23.20;99.90;;;;;;6224362;28;89131;-73
2023/09/17 06:50:37;;;;;;;5.80;5.25;;;23.20;99.90;;;;;;6225480;28;89066;-73
2023/09/17 06:53:39;;;;;;;5.88;5.38;;;23.10;99.90;;;;;;6233142;28;87196;-73
2023/09/17 06:56:41;;;;;;;5.88;5.38;;;23.20;99.90;;;;;;6230224;28;89035;-73
2023/09/17 06:59:43;;;;;;;5.85;5.25;;;23.20;99.90;;;;;;6230651;28;89226;-72
2023/09/17 07:02:47;;;;;;;5.90;5.30;;;23.20;99.90;;;;;;6230007;28;89962;-72
2023/09/17 07:05:49;;;;;;;6.13;5.53;;;23.20;99.90;;;;;;6229954;28;89111;-73
2023/09/17 07:08:52;;;;;;;6.05;5.50;;;23.10;99.90;;;;;;6187006;28;1243235;-73
2023/09/17 07:11:54;;;;;;;6.75;5.70;;;23.20;99.90;;;;;;6231848;28;89151;-72
2023/09/17 07:14:56;;;;;;;5.65;5.15;;;23.10;99.90;;;;;;6226928;28;89135;-72
2023/09/17 07:18:00;;;;;;;5.82;5.25;;;23.20;99.90;;;;;;6231115;28;88973;-72
2023/09/17 07:21:03;;;;;;;6.10;5.50;;;23.10;99.90;;;;;;6230825;28;87970;-73
2023/09/17 07:24:06;;;;;;;5.68;5.18;;;23.20;99.90;;;;;;6226135;28;88346;-73
2023/09/17 07:27:08;;;;;;;5.65;5.15;;;23.20;99.90;;;;;;6230671;28;89269;-73
2023/09/17 07:30:11;;;;;;;7.63;5.75;;;23.20;99.90;;;;;;6230753;28;89001;-72
2023/09/17 07:33:14;;;;;;;5.72;5.20;;;23.20;99.90;;;;;;6230213;28;90317;-73
2023/09/17 07:36:17;;;;;;;5.72;5.22;;;23.20;99.90;;;;;;6222143;28;89031;-73
2023/09/17 07:39:18;;;;;;;5.35;4.90;;;23.20;99.90;;;;;;6231838;28;89225;-73
2023/09/17 07:42:20;;;;;;;5.88;5.28;;;23.20;99.90;;;;;;6229051;28;89050;-73
2023/09/17 07:45:22;;;;;;;5.57;5.10;;;23.20;99.90;;;;;;6230899;28;89464;-73
2023/09/17 07:48:29;;;;;;;5.70;5.20;;;23.20;99.90;;;;;;6219374;28;89052;-73
2023/09/17 07:51:31;;;;;;;5.13;4.70;;;23.20;99.90;;;;;;6230613;28;89198;-73
2023/09/17 07:54:38;;;;;;;5.45;4.95;;;23.10;99.90;;;;;;6232155;28;88387;-73
2023/09/17 07:57:40;;;;;;;5.28;4.75;;;23.20;99.90;;;;;;6229804;28;89377;-73
2023/09/17 08:00:45;;;;;;;5.40;4.70;;;23.20;99.90;;;;;;6231794;28;89019;-73
2023/09/17 08:03:48;;;;;;;6.03;5.05;;;23.20;99.90;;;;;;6229819;28;90795;-73
2023/09/17 08:06:50;;;;;;;5.60;5.10;;;23.20;99.90;;;;;;6229549;28;89030;-73
2023/09/17 08:09:52;;;;;;;6.00;4.90;;;23.20;99.90;;;;;;6230433;28;89073;-73
2023/09/17 08:12:57;;;;;;;5.13;4.63;;;23.10;99.90;;;;;;6228101;28;89146;-73
2023/09/17 08:15:59;;;;;;;5.55;5.03;;;23.20;99.90;;;;;;6230444;28;89460;-72
2023/09/17 08:19:02;;;;;;;5.50;4.78;;;23.10;99.90;;;;;;6231903;28;89332;-73
2023/09/17 08:22:04;;;;;;;6.45;5.15;;;23.10;99.90;;;;;;6221039;28;89629;-73
2023/09/17 08:25:08;;;;;;;5.53;4.50;;;23.20;99.90;;;;;;6230164;28;87142;-72
2023/09/17 08:28:13;;;;;;;4.70;4.30;;;23.20;99.90;;;;;;6231514;28;89066;-73
2023/09/17 08:31:15;;;;;;;4.97;4.50;;;23.20;99.90;;;;;;6230641;28;91851;-72
2023/09/17 08:34:18;;;;;;;5.13;4.70;;;23.20;99.90;;;;;;6229539;28;90348;-73
2023/09/17 08:37:20;;;;;;;4.75;4.35;;;23.20;99.90;;;;;;6230247;28;88986;-72
2023/09/17 08:40:27;;;;;;;4.90;4.50;;;23.20;99.90;;;;;;6229542;28;88056;-73
2023/09/17 08:43:31;;;;;;;5.32;4.90;;;23.20;99.90;;;;;;6225216;28;89111;-72
2023/09/17 08:46:34;;;;;;;5.30;4.88;;;23.20;99.90;;;;;;6224676;28;89034;-72
2023/09/17 08:49:38;;;;;;;6.47;4.70;;;23.20;99.90;;;;;;6221384;28;89084;-73
2023/09/17 08:52:43;;;;;;;5.28;4.68;;;23.20;99.90;;;;;;6229275;28;87978;-73
2023/09/17 08:55:45;;;;;;;4.97;4.57;;;23.30;99.90;;;;;;6218042;28;89079;-73
2023/09/17 08:58:52;;;;;;;4.55;4.15;;;23.30;99.90;;;;;;6230739;28;89095;-73
2023/09/17 09:01:56;;;;;;;4.90;4.47;;;23.30;99.90;;;;;;6217425;28;89328;-72
2023/09/17 09:05:02;;;;;;;5.32;4.65;;;23.30;99.90;;;;;;6230026;28;90077;-73
2023/09/17 09:08:05;;;;;;;5.07;4.57;;;23.40;99.90;;;;;;6223240;28;89250;-73
2023/09/17 09:11:07;;;;;;;5.05;4.55;;;23.30;99.90;;;;;;6219573;28;89071;-73
2023/09/17 09:14:10;;;;;;;5.15;4.70;;;23.40;99.90;;;;;;6223228;28;89195;-72
2023/09/17 09:17:13;;;;;;;5.68;5.07;;;23.30;99.90;;;;;;6230453;28;89225;-72
2023/09/17 09:20:16;;;;;;;5.72;4.90;;;23.30;99.90;;;;;;6229393;28;89179;-73
2023/09/17 09:23:18;;;;;;;5.50;5.00;;;23.40;99.90;;;;;;6222348;28;88976;-73
2023/09/17 09:26:22;;;;;;;5.40;4.95;;;23.30;99.90;;;;;;6229348;28;88318;-73
2023/09/17 09:29:24;;;;;;;5.90;4.90;;;23.40;99.90;;;;;;6229093;28;89170;-73
2023/09/17 09:32:26;;;;;;;5.20;4.80;;;23.40;99.90;;;;;;6228093;28;88963;-73
2023/09/17 09:35:30;;;;;;;5.53;5.03;;;23.40;99.90;;;;;;6227908;28;89978;-73
2023/09/17 09:38:36;;;;;;;6.35;5.20;;;23.40;99.90;;;;;;6229827;28;89009;-72
2023/09/17 09:41:38;;;;;;;5.28;4.88;;;23.40;99.90;;;;;;6229676;28;89259;-73
2023/09/17 09:44:40;;;;;;;6.47;5.85;;;23.40;99.90;;;;;;6229785;28;89297;-73
2023/09/17 09:47:45;;;;;;;6.20;5.20;;;23.40;99.90;;;;;;6219467;28;89045;-73
2023/09/17 09:50:49;;;;;;;5.90;5.20;;;23.40;99.90;;;;;;6228397;28;89085;-73
2023/09/17 09:53:51;;;;;;;6.07;5.55;;;23.40;99.90;;;;;;6229276;28;88814;-73
2023/09/17 09:56:53;;;;;;;5.60;5.10;;;23.40;99.90;;;;;;6227058;28;87217;-73
2023/09/17 09:59:55;;;;;;;5.72;5.22;;;23.40;99.90;;;;;;6229145;28;88277;-72
2023/09/17 10:02:57;;;;;;;6.00;5.50;;;23.40;99.90;;;;;;6233170;28;89136;-73
2023/09/17 10:06:06;;;;;;;6.75;5.93;;;23.40;99.90;;;;;;6231286;28;90046;-73
2023/09/17 10:09:10;;;;;;;8.52;6.68;;;23.50;99.90;;;;;;6232306;28;89085;-73
2023/09/17 10:12:13;;;;;;;6.43;5.82;;;23.40;99.90;;;;;;6232928;28;88994;-72
2023/09/17 10:15:16;;;;;;;6.10;5.55;;;23.40;99.90;;;;;;6226789;28;89253;-72
2023/09/17 10:18:19;;;;;;;5.55;5.00;;;23.40;99.90;;;;;;6232996;28;89160;-73
2023/09/17 10:21:23;;;;;;;4.90;4.55;;;23.40;99.90;;;;;;6232952;28;89224;-73
2023/09/17 10:24:25;;;;;;;6.15;5.60;;;23.40;99.90;;;;;;6232880;28;89115;-73
2023/09/17 10:27:28;;;;;;;5.43;5.03;;;23.40;99.90;;;;;;6232362;28;87234;-72
2023/09/17 10:30:32;;;;;;;5.38;4.88;;;23.40;99.90;;;;;;6230040;28;89522;-72
2023/09/17 10:33:36;;;;;;;5.43;4.93;;;23.40;99.90;;;;;;6232561;28;89426;-72
2023/09/17 10:36:42;;;;;;;6.22;5.45;;;23.40;99.90;;;;;;6231010;28;90198;-72
2023/09/17 10:39:45;;;;;;;5.75;5.15;;;23.40;99.90;;;;;;6232457;28;89153;-72
2023/09/17 10:42:50;;;;;;;5.53;5.03;;;23.40;99.90;;;;;;6233390;28;89037;-72
2023/09/17 10:45:55;;;;;;;7.55;5.20;;;23.40;99.90;;;;;;6232440;28;90567;-72
2023/09/17 10:48:59;;;;;;;5.28;4.80;;;23.40;99.90;;;;;;6232132;28;89036;-73
2023/09/17 10:52:03;;;;;;;5.30;4.80;;;23.40;99.90;;;;;;6228932;28;88301;-72
2023/09/17 10:55:07;;;;;;;5.25;4.85;;;23.40;99.90;;;;;;6232294;28;89382;-73
2023/09/17 10:58:16;;;;;;;5.40;4.70;;;23.50;99.90;;;;;;6227915;28;87272;-72
2023/09/17 11:01:23;;;;;;;5.20;4.80;;;23.50;99.90;;;;;;6229552;28;89066;-73
2023/09/17 11:04:27;;;;;;;5.75;5.25;;;23.50;99.90;;;;;;6232523;28;89161;-73
2023/09/17 11:07:31;;;;;;;5.97;4.93;;;23.50;99.90;;;;;;6223753;28;90435;-73
2023/09/17 11:10:41;;;;;;;5.57;5.10;;;23.50;99.90;;;;;;6229582;28;89056;-73
2023/09/17 11:13:46;;;;;;;5.00;4.60;;;23.50;99.90;;;;;;6232574;28;89169;-73
2023/09/17 11:16:49;;;;;;;5.20;4.80;;;23.50;99.90;;;;;;6227589;28;89306;-73
2023/09/17 11:19:51;;;;;;;5.35;4.95;;;23.50;99.90;;;;;;6231511;28;88740;-73
2023/09/17 11:22:55;;;;;;;5.10;4.70;;;23.50;99.90;;;;;;6232596;28;89019;-73
2023/09/17 11:25:59;;;;;;;6.10;5.13;;;23.60;99.90;;;;;;6226115;28;89017;-73
2023/09/17 11:29:05;;;;;;;5.15;4.72;;;23.50;99.90;;;;;;6231850;28;87182;-73
2023/09/17 11:32:07;;;;;;;5.28;4.78;;;23.50;99.90;;;;;;6230085;28;89060;-73
2023/09/17 11:35:11;;;;;;;6.10;5.30;;;23.60;99.90;;;;;;6231254;28;89236;-73
2023/09/17 11:38:19;;;;;;;5.25;4.78;;;23.60;99.90;;;;;;6230278;28;88942;-73
2023/09/17 11:41:30;;;;;;;5.40;4.90;;;23.50;99.90;;;;;;6220716;28;88002;-73
2023/09/17 11:44:34;;;;;;;5.05;4.65;;;23.60;99.90;;;;;;6230988;28;89609;-73
2023/09/17 11:47:38;;;;;;;7.13;5.78;;;23.60;99.90;;;;;;6221115;28;87998;-73
2023/09/17 11:50:42;;;;;;;5.70;4.80;;;23.60;99.90;;;;;;6231018;28;87771;-74
2023/09/17 11:53:58;;;;;;;5.15;4.75;;;23.60;99.90;;;;;;6231690;28;88896;-73
2023/09/17 11:57:01;;;;;;;5.13;4.63;;;23.60;99.90;;;;;;6232074;28;87931;-73
2023/09/17 12:00:09;;;;;;;5.10;4.70;;;23.60;99.90;;;;;;6226818;28;87035;-72
2023/09/17 12:03:16;;;;;;;4.95;4.55;;;23.60;99.90;;;;;;6229711;28;88215;-73
2023/09/17 12:06:20;;;;;;;5.60;5.10;;;23.60;99.90;;;;;;6230352;28;88257;-73
2023/09/17 12:09:38;;;;;;;5.25;4.75;;;23.60;99.90;;;;;;6228088;28;89008;-73
2023/09/17 12:12:41;;;;;;;5.40;4.90;;;23.60;99.90;;;;;;6217942;28;88303;-73
2023/09/17 12:15:45;;;;;;;5.63;5.00;;;23.70;99.90;;;;;;6230691;28;88199;-72
2023/09/17 12:18:49;;;;;;;5.70;5.05;;;23.70;99.90;;;;;;6221560;28;88034;-72
2023/09/17 12:21:55;;;;;;;5.03;4.63;;;23.70;99.90;;;;;;6220932;28;88182;-73
2023/09/17 12:25:05;;;;;;;5.18;4.78;;;23.70;99.90;;;;;;6231169;28;88018;-72
2023/09/17 12:28:09;;;;;;;5.38;4.78;;;23.70;99.90;;;;;;6230544;28;88239;-73
2023/09/17 12:31:12;;;;;;;5.60;5.10;;;23.70;99.90;;;;;;6229752;28;86904;-72
2023/09/17 12:34:16;;;;;;;5.25;4.75;;;23.70;99.90;;;;;;6230471;28;89763;-72
2023/09/17 12:37:19;;;;;;;5.07;4.68;;;23.70;99.90;;;;;;6230457;28;90583;-72
2023/09/17 12:40:25;;;;;;;5.07;4.68;;;23.70;99.90;;;;;;6224384;28;89075;-72
2023/09/17 12:43:28;;;;;;;5.60;5.10;;;23.70;99.90;;;;;;6230416;28;87971;-72
2023/09/17 12:46:32;;;;;;;5.20;4.80;;;23.80;99.90;;;;;;6226433;28;88267;-72
2023/09/17 12:49:36;;;;;;;5.43;4.93;;;23.80;99.90;;;;;;6222835;28;87951;-73
2023/09/17 12:52:40;;;;;;;4.80;4.40;;;23.80;99.90;;;;;;6228495;28;88205;-73
2023/09/17 12:55:44;;;;;;;5.70;5.00;;;23.80;99.90;;;;;;6229305;28;87958;-72
2023/09/17 12:58:50;;;;;;;4.85;4.45;;;23.80;99.90;;;;;;6229875;28;88915;-73
2023/09/17 13:01:54;;;;;;;5.80;4.43;;;23.80;99.90;;;;;;6229907;28;88288;-72
2023/09/17 13:04:58;;;;;;;4.85;4.35;;;23.90;99.90;;;;;;6221708;28;87041;-73
2023/09/17 13:08:05;;;;;;;4.78;4.38;;;23.90;99.90;;;;;;6224163;28;89085;-72
2023/09/17 13:11:12;;;;;;;5.63;5.13;;;23.80;99.90;;;;;;6228638;28;88989;-72
2023/09/17 13:14:16;;;;;;;5.60;5.10;;;23.80;99.90;;;;;;6230333;28;88334;-73
2023/09/17 13:17:22;;;;;;;5.95;4.90;;;23.90;99.90;;;;;;6231034;28;87577;-72
2023/09/17 13:20:26;;;;;;;6.43;4.70;;;23.80;99.90;;;;;;6229367;28;87972;-74
2023/09/17 13:23:31;;;;;;;5.15;4.55;;;23.90;99.90;;;;;;6221605;28;88067;-72
2023/09/17 13:26:36;;;;;;;4.50;4.10;;;23.80;99.90;;;;;;6231188;28;87992;-73
2023/09/17 13:30:19;;;;;;;4.97;4.57;;;23.90;99.90;;;;;;6218571;28;88001;-70
2023/09/17 13:33:23;;;;;;;6.72;4.55;;;23.90;99.90;;;;;;6227107;28;87278;-72
2023/09/17 13:36:28;;;;;;;4.70;4.22;;;23.90;99.90;;;;;;6234828;28;87840;-71
2023/09/17 13:39:33;;;;;;;4.47;4.07;;;23.90;99.90;;;;;;6222568;28;88100;-73
2023/09/17 13:42:38;;;;;;;4.38;3.97;;;23.90;99.90;;;;;;6232784;28;89463;-72
2023/09/17 13:45:54;;;;;;;4.65;4.25;;;23.90;99.90;;;;;;6233714;28;87925;-72
2023/09/17 13:48:57;;;;;;;4.40;4.00;;;23.90;99.90;;;;;;6222772;28;87092;-71
2023/09/17 13:52:01;;;;;;;4.57;4.18;;;23.90;99.90;;;;;;6234257;28;88383;-71
2023/09/17 13:55:06;;;;;;;4.55;4.15;;;23.90;99.90;;;;;;6220338;28;87035;-71
2023/09/17 13:58:12;;;;;;;4.82;4.30;;;23.90;99.90;;;;;;6228753;28;88033;-72
2023/09/17 14:01:16;;;;;;;6.22;4.80;;;23.90;99.90;;;;;;6232859;28;87926;-71
2023/09/17 14:04:19;;;;;;;5.90;4.70;;;23.90;99.90;;;;;;6233469;28;87312;-72
2023/09/17 14:07:24;;;;;;;6.57;5.13;;;23.90;99.90;;;;;;6232437;28;87989;-72
2023/09/17 14:10:29;;;;;;;5.25;4.60;;;23.90;99.90;;;;;;6233017;28;90616;-73
2023/09/17 14:13:35;;;;;;;7.07;5.10;;;23.90;99.90;;;;;;6231986;28;89084;-72
2023/09/17 14:16:41;;;;;;;6.75;5.10;;;24.00;99.90;;;;;;6232564;28;87021;-72
2023/09/17 14:19:45;;;;;;;5.68;5.18;;;24.00;99.90;;;;;;6231857;28;87110;-72
2023/09/17 14:22:48;;;;;;;5.32;4.72;;;23.90;99.90;;;;;;6232136;28;88611;-72
2023/09/17 14:25:53;;;;;;;5.95;5.22;;;24.00;99.90;;;;;;6230311;28;88158;-73
2023/09/17 14:29:00;;;;;;;5.20;4.70;;;24.00;99.90;;;;;;6232825;28;88057;-73
2023/09/17 14:32:04;;;;;;;5.40;4.90;;;24.00;99.90;;;;;;6230049;28;88205;-72
2023/09/17 14:35:09;;;;;;;5.63;4.88;;;24.00;99.90;;;;;;6233405;28;86249;-72
2023/09/17 14:38:12;;;;;;;6.35;5.00;;;24.10;99.90;;;;;;6218765;28;87918;-72
2023/09/17 14:41:16;;;;;;;4.80;4.40;;;24.00;99.90;;;;;;6222384;28;88058;-73
2023/09/17 14:44:24;;;;;;;4.88;4.47;;;24.10;99.90;;;;;;6220506;28;88527;-73
2023/09/17 14:47:28;;;;;;;6.18;5.07;;;24.10;99.90;;;;;;6221636;28;87084;-73
2023/09/17 14:50:32;;;;;;;5.05;4.65;;;24.00;99.90;;;;;;6234379;28;87013;-73
2023/09/17 14:53:36;;;;;;;5.20;4.70;;;24.00;99.90;;;;;;6232288;28;88339;-73
2023/09/17 14:56:40;;;;;;;5.10;4.60;;;24.00;99.90;;;;;;6227375;28;87946;-73
2023/09/17 14:59:49;;;;;;;4.90;4.50;;;24.10;99.90;;;;;;6231032;28;87963;-72
2023/09/17 15:02:54;;;;;;;5.22;4.72;;;24.00;99.90;;;;;;6232626;28;88002;-80
2023/09/17 15:05:58;;;;;;;6.72;5.43;;;24.10;99.90;;;;;;6232594;28;87302;-74
2023/09/17 15:09:04;;;;;;;6.80;5.25;;;24.10;99.90;;;;;;6229680;28;87900;-73
2023/09/17 15:12:08;;;;;;;5.65;4.80;;;24.10;99.90;;;;;;6232225;28;87834;-73
2023/09/17 15:15:14;;;;;;;4.80;4.40;;;24.10;99.90;;;;;;6231466;28;88964;-72
2023/09/17 15:18:19;;;;;;;4.65;4.25;;;24.10;99.90;;;;;;6232434;28;88092;-72
2023/09/17 15:21:23;;;;;;;4.60;4.20;;;24.10;99.90;;;;;;6231874;28;88477;-74
2023/09/17 15:24:27;;;;;;;4.82;4.32;;;24.10;99.90;;;;;;6223187;28;88068;-73
2023/09/17 15:27:33;;;;;;;5.07;4.45;;;24.00;99.90;;;;;;6226759;28;88048;-73
2023/09/17 15:30:51;;;;;;;5.15;4.60;;;24.10;99.90;;;;;;6223898;28;88082;-72
2023/09/17 15:33:55;;;;;;;4.88;4.38;;;24.10;99.90;;;;;;6232149;28;88409;-73
2023/09/17 15:36:59;;;;;;;4.78;4.38;;;24.10;99.90;;;;;;6232737;28;87318;-73
2023/09/17 15:40:06;;;;;;;5.05;4.10;;;24.10;99.90;;;;;;6230700;28;87647;-73
2023/09/17 15:43:11;;;;;;;4.60;3.92;;;24.10;99.90;;;;;;6228734;28;88059;-73
2023/09/17 15:46:18;;;;;;;4.30;3.90;;;24.10;99.90;;;;;;6221937;28;88886;-72
2023/09/17 15:49:22;;;;;;;3.97;3.67;;;24.10;99.90;;;;;;6230749;28;88038;-74
2023/09/17 15:52:26;;;;;;;4.00;3.60;;;24.10;99.90;;;;;;6220192;28;87079;-73
2023/09/17 15:55:30;;;;;;;4.13;3.70;;;24.10;99.90;;;;;;6230120;28;87678;-72
2023/09/17 15:58:34;;;;;;;4.32;3.90;;;24.10;99.90;;;;;;6226487;28;87107;-72